Time;durP1;ratioP1;P1;durP2;ratioP2;P2;SDS_P1;SDS_P2;PMS_P1;PMS_P2;Temp;Humidity;BMP_temperature;BMP_pressure;BME280_temperature;BME280_humidity;BME280_pressure;Samples;Min_cycle;Max_cycle;Signal;HPM_P1;HPM_P2
2022/09/05 00:00:25;;;;;;;13.43;12.23;;;14.30;1.00;;;;;;4934606;29;20236;-85
2022/09/05 00:03:13;;;;;;;14.10;12.87;;;14.30;1.00;;;;;;4937446;29;20629;-86
2022/09/05 00:06:00;;;;;;;13.40;12.20;;;14.30;1.00;;;;;;4937668;29;20189;-85
2022/09/05 00:08:32;;;;;;;13.27;12.13;;;14.30;1.00;;;;;;4937312;29;20196;-85
2022/09/05 00:11:08;;;;;;;13.85;12.70;;;14.30;1.00;;;;;;4937257;29;20200;-85
2022/09/05 00:13:40;;;;;;;16.25;14.75;;;14.20;1.00;;;;;;4937371;29;20212;-86
2022/09/05 00:16:33;;;;;;;17.55;15.90;;;14.20;1.00;;;;;;4936884;29;20312;-85
2022/09/05 00:19:10;;;;;;;16.45;14.90;;;14.10;1.00;;;;;;4936449;29;20185;-87
2022/09/05 00:21:51;;;;;;;14.90;13.60;;;14.10;1.00;;;;;;4937322;29;20658;-86
2022/09/05 00:24:34;;;;;;;15.20;13.83;;;14.00;1.00;;;;;;4937184;29;20478;-86
2022/09/05 00:27:13;;;;;;;14.25;12.95;;;14.00;1.00;;;;;;4936779;29;20197;-87
2022/09/05 00:29:57;;;;;;;14.95;13.55;;;13.90;1.00;;;;;;4937419;29;20193;-86
2022/09/05 00:32:37;;;;;;;14.00;12.77;;;13.90;1.00;;;;;;4936783;29;20700;-86
2022/09/05 00:35:20;;;;;;;14.80;13.45;;;13.90;1.00;;;;;;4937484;29;20558;-85
2022/09/05 00:37:50;;;;;;;14.02;12.73;;;13.80;1.00;;;;;;4936058;29;20546;-85
2022/09/05 00:40:26;;;;;;;14.32;12.93;;;13.80;1.00;;;;;;4936989;29;20575;-85
2022/09/05 00:42:59;;;;;;;14.40;13.00;;;13.70;1.00;;;;;;4936699;29;20195;-86
2022/09/05 00:45:32;;;;;;;14.70;13.30;;;13.70;1.00;;;;;;4936783;29;20192;-86
2022/09/05 00:48:07;;;;;;;14.55;13.13;;;13.70;1.00;;;;;;4936789;29;20196;-85
2022/09/05 00:50:45;;;;;;;14.13;12.77;;;13.60;1.00;;;;;;4936728;29;20199;-85
2022/09/05 00:53:18;;;;;;;14.88;13.40;;;13.60;1.00;;;;;;4936316;29;20272;-86
2022/09/05 00:55:59;;;;;;;14.77;13.35;;;13.60;1.00;;;;;;4936865;29;20193;-86
2022/09/05 00:58:53;;;;;;;14.40;13.07;;;13.50;1.00;;;;;;4936463;29;20197;-85
2022/09/05 01:01:29;;;;;;;15.30;13.90;;;13.50;1.00;;;;;;4936567;29;20201;-85
2022/09/05 01:04:19;;;;;;;;;;;13.40;1.00;;;;;;4936454;29;20200;-85
2022/09/05 01:07:03;;;;;;;20.10;18.10;;;13.40;1.00;;;;;;4921116;29;20210;-85
2022/09/05 01:09:38;;;;;;;;;;;13.30;1.00;;;;;;4936151;29;20204;-85
2022/09/05 01:12:31;;;;;;;31.95;18.42;;;13.30;1.00;;;;;;4935185;29;20777;-86
2022/09/05 01:15:08;;;;;;;;;;;13.20;1.00;;;;;;4936114;29;20216;-85
2022/09/05 01:17:50;;;;;;;31.15;18.20;;;13.20;1.00;;;;;;4934959;29;20455;-86
2022/09/05 01:20:32;;;;;;;15.70;13.85;;;13.20;1.00;;;;;;4935979;29;20256;-85
2022/09/05 01:23:28;;;;;;;15.97;14.33;;;13.20;1.00;;;;;;4935975;29;20207;-85
2022/09/05 01:26:13;;;;;;;14.90;13.32;;;13.20;1.00;;;;;;4935740;29;20650;-85
2022/09/05 01:28:50;;;;;;;16.00;14.30;;;13.10;1.00;;;;;;4936303;29;20201;-85
2022/09/05 01:31:25;;;;;;;16.50;14.80;;;13.10;1.00;;;;;;4924453;29;20211;-85
2022/09/05 01:33:59;;;;;;;17.13;14.20;;;13.00;1.00;;;;;;4935493;29;20218;-85
2022/09/05 01:36:41;;;;;;;16.30;13.88;;;13.00;1.00;;;;;;4935807;29;20192;-86
2022/09/05 01:39:18;;;;;;;14.70;13.20;;;12.90;1.00;;;;;;4935830;29;20223;-85
2022/09/05 01:41:54;;;;;;;15.20;13.57;;;12.90;1.00;;;;;;4936013;29;20227;-86
2022/09/05 01:44:43;;;;;;;15.80;14.23;;;12.90;1.00;;;;;;4935675;29;20215;-85
2022/09/05 01:47:27;;;;;;;15.20;13.63;;;12.80;1.00;;;;;;4935768;29;20721;-85
2022/09/05 01:50:00;;;;;;;18.10;16.20;;;12.80;1.00;;;;;;4922817;29;20253;-85
2022/09/05 01:52:45;;;;;;;16.80;15.10;;;12.70;1.00;;;;;;4935763;29;20223;-86
2022/09/05 01:55:18;;;;;;;;;;;12.70;1.00;;;;;;4932233;29;20725;-86
2022/09/05 01:57:51;;;;;;;31.95;18.48;;;12.70;1.00;;;;;;4952162;29;20430;-85
2022/09/05 02:00:23;;;;;;;15.07;13.60;;;12.70;1.00;;;;;;4935642;29;20201;-86
2022/09/05 02:03:03;;;;;;;18.92;14.45;;;12.70;1.00;;;;;;4935105;29;20201;-86
2022/09/05 02:05:49;;;;;;;18.00;14.25;;;12.60;1.00;;;;;;4934830;29;20199;-85
2022/09/05 02:08:46;;;;;;;18.55;14.45;;;12.70;1.00;;;;;;4935060;29;20203;-86
2022/09/05 02:11:15;;;;;;;20.02;14.88;;;12.60;1.00;;;;;;4935023;29;20317;-85
2022/09/05 02:14:07;;;;;;;19.17;14.65;;;12.60;1.00;;;;;;4935038;29;20213;-85
2022/09/05 02:16:43;;;;;;;18.83;14.60;;;12.50;1.00;;;;;;4936225;29;20228;-85
2022/09/05 02:19:17;;;;;;;17.95;14.35;;;12.50;1.00;;;;;;4934781;29;20748;-85
2022/09/05 02:21:54;;;;;;;16.77;14.18;;;12.50;1.00;;;;;;4935061;29;20207;-85
2022/09/05 02:24:26;;;;;;;15.68;13.52;;;12.50;1.00;;;;;;4940974;29;20200;-86
2022/09/05 02:27:20;;;;;;;16.20;13.93;;;12.40;1.00;;;;;;4934802;29;20641;-86
2022/09/05 02:29:59;;;;;;;16.00;14.30;;;12.40;1.00;;;;;;4922212;29;20247;-85
2022/09/05 02:32:32;;;;;;;16.10;14.48;;;12.40;1.00;;;;;;4935241;29;20196;-85
2022/09/05 02:35:07;;;;;;;16.10;14.50;;;12.30;1.00;;;;;;4922212;29;20713;-85
2022/09/05 02:37:42;;;;;;;20.80;18.60;;;12.30;1.00;;;;;;4929223;29;20188;-85
2022/09/05 02:40:16;;;;;;;18.20;16.30;;;12.30;1.00;;;;;;4922786;29;20192;-85
2022/09/05 02:42:48;;;;;;;;;;;12.30;1.00;;;;;;4934770;29;20192;-85
2022/09/05 02:45:23;;;;;;;30.55;17.90;;;12.30;1.00;;;;;;4933230;29;20431;-86
2022/09/05 02:48:01;;;;;;;16.98;14.18;;;12.20;1.00;;;;;;4938300;29;20184;-85
2022/09/05 02:50:36;;;;;;;16.42;13.88;;;12.20;1.00;;;;;;4942260;29;20275;-85
2022/09/05 02:53:07;;;;;;;16.08;13.68;;;12.20;1.00;;;;;;4934295;29;20615;-85
2022/09/05 02:55:49;;;;;;;15.93;13.88;;;12.20;1.00;;;;;;4934848;29;20192;-85
2022/09/05 02:58:42;;;;;;;16.17;14.52;;;12.20;1.00;;;;;;4934859;29;20203;-84
2022/09/05 03:01:13;;;;;;;16.38;14.18;;;12.20;1.00;;;;;;4933641;29;20207;-85
2022/09/05 03:03:50;;;;;;;16.02;14.13;;;12.20;1.00;;;;;;4934550;29;20203;-85
2022/09/05 03:06:30;;;;;;;15.68;13.95;;;12.10;1.00;;;;;;4934306;29;20199;-84
2022/09/05 03:09:14;;;;;;;15.73;13.85;;;12.10;1.00;;;;;;4934507;29;20596;-85
2022/09/05 03:12:17;;;;;;;16.00;14.10;;;12.10;1.00;;;;;;4933696;29;20283;-85
2022/09/05 03:15:23;;;;;;;15.32;13.55;;;12.00;1.00;;;;;;4920007;29;20223;-86
2022/09/05 03:18:05;;;;;;;16.05;13.90;;;12.00;1.00;;;;;;4933794;29;20259;-85
2022/09/05 03:21:02;;;;;;;15.60;13.70;;;12.00;1.00;;;;;;4945024;29;20590;-86
2022/09/05 03:24:16;;;;;;;15.82;13.77;;;11.90;1.00;;;;;;4935397;29;20264;-85
2022/09/05 03:27:29;;;;;;;14.18;12.80;;;11.80;1.00;;;;;;4926181;29;20192;-85
2022/09/05 03:30:07;;;;;;;;;;;11.80;1.00;;;;;;4885181;29;20194;-87
2022/09/05 03:33:05;;;;;;;21.65;15.23;;;11.70;1.00;;;;;;4894391;29;20434;-85
2022/09/05 03:36:13;;;;;;;13.57;12.38;;;11.70;1.00;;;;;;4925047;29;20204;-85
2022/09/05 03:39:12;;;;;;;13.48;12.20;;;11.80;1.00;;;;;;4913715;29;20272;-86
2022/09/05 03:41:57;;;;;;;14.23;12.82;;;11.80;1.00;;;;;;4931903;29;20192;-86
2022/09/05 03:44:39;;;;;;;14.45;13.05;;;11.70;1.00;;;;;;4941290;29;20204;-85
2022/09/05 03:47:44;;;;;;;14.90;13.47;;;11.80;1.00;;;;;;4938480;29;20197;-86
2022/09/05 03:50:33;;;;;;;14.00;12.70;;;11.70;1.00;;;;;;4927116;29;20200;-85
2022/09/05 03:53:29;;;;;;;16.90;15.30;;;11.80;1.00;;;;;;4937926;29;20290;-85
2022/09/05 03:56:12;;;;;;;14.48;13.13;;;11.70;1.00;;;;;;4934674;29;20201;-85
2022/09/05 03:58:50;;;;;;;;;;;11.70;1.00;;;;;;4926839;29;20196;-84
2022/09/05 04:01:22;;;;;;;20.47;14.63;;;11.70;1.00;;;;;;4936527;29;20431;-87
2022/09/05 04:03:54;;;;;;;20.40;18.40;;;11.70;1.00;;;;;;4938213;29;20441;-86
2022/09/05 04:06:26;;;;;;;13.20;11.98;;;11.70;1.00;;;;;;4937407;29;20199;-86
2022/09/05 04:09:06;;;;;;;15.00;13.67;;;11.70;1.00;;;;;;4938031;29;20212;-85
2022/09/05 04:11:36;;;;;;;;;;;11.70;1.00;;;;;;4937069;29;20195;-86
2022/09/05 04:14:07;;;;;;;18.95;14.27;;;11.70;1.00;;;;;;4945560;29;20455;-84
2022/09/05 04:16:45;;;;;;;;;;;11.70;1.00;;;;;;4928833;29;20577;-85
2022/09/05 04:19:20;;;;;;;18.23;14.07;;;11.70;1.00;;;;;;4932645;29;20433;-88
2022/09/05 04:21:49;;;;;;;;;;;11.60;1.00;;;;;;4939748;29;20184;-85
2022/09/05 04:24:30;;;;;;;;;;;11.60;1.00;;;;;;4941113;29;19929;-92
2022/09/05 04:27:02;;;;;;;;;;;11.70;1.00;;;;;;4942069;29;19907;-90
2022/09/05 04:29:46;;;;;;;16.70;13.68;;;11.70;1.00;;;;;;4940707;29;20420;-88
2022/09/05 04:32:24;;;;;;;;;;;11.70;1.00;;;;;;4941589;29;20212;-89
2022/09/05 04:34:59;;;;;;;;;;;11.70;1.00;;;;;;4937208;29;19922;-86
2022/09/05 04:37:36;;;;;;;;;;;11.70;1.00;;;;;;4917641;29;19971;-86
2022/09/05 04:40:21;;;;;;;;;;;11.70;1.00;;;;;;4918763;29;19923;-86
2022/09/05 04:42:51;;;;;;;;;;;11.70;1.00;;;;;;4931982;29;19927;-88
2022/09/05 04:45:18;;;;;;;;;;;11.70;1.00;;;;;;4918672;29;19931;-88
2022/09/05 04:47:52;;;;;;;14.40;12.90;;;11.80;1.00;;;;;;4917928;29;20433;-86
2022/09/05 04:50:20;;;;;;;;;;;11.80;1.00;;;;;;4933494;29;20193;-86
2022/09/05 04:53:07;;;;;;;15.75;13.40;;;11.80;1.00;;;;;;4916037;29;20811;-86
2022/09/05 04:55:39;;;;;;;;;;;11.80;1.00;;;;;;4921681;29;20237;-88
2022/09/05 04:58:21;;;;;;;16.92;13.70;;;11.90;1.00;;;;;;4916615;29;20432;-85
2022/09/05 05:00:55;;;;;;;14.20;12.90;;;11.90;1.00;;;;;;4917500;29;20220;-85
2022/09/05 05:03:26;;;;;;;15.30;13.90;;;12.00;1.00;;;;;;4918026;29;20248;-85
2022/09/05 05:05:55;;;;;;;;;;;12.00;1.00;;;;;;4918190;29;20197;-85
2022/09/05 05:08:28;;;;;;;17.80;13.97;;;12.00;1.00;;;;;;4916455;29;20452;-86
2022/09/05 05:10:57;;;;;;;;;;;12.20;1.00;;;;;;4918288;29;20231;-86
2022/09/05 05:13:30;;;;;;;12.75;11.65;;;12.90;1.00;;;;;;4916931;29;20513;-86
2022/09/05 05:15:58;;;;;;;;;;;13.70;1.00;;;;;;4929628;29;20689;-87
2022/09/05 05:18:26;;;;;;;;;;;14.50;1.00;;;;;;4943935;29;19922;-86
2022/09/05 05:20:56;;;;;;;;;;;15.10;1.00;;;;;;4935819;29;19923;-86
2022/09/05 05:23:31;;;;;;;;;;;15.60;1.00;;;;;;4936887;29;19978;-86
2022/09/05 05:26:00;;;;;;;;;;;16.20;1.00;;;;;;4936725;29;19923;-86
2022/09/05 05:28:31;;;;;;;;;;;16.60;1.00;;;;;;4936736;29;20300;-87
2022/09/05 05:31:11;;;;;;;;;;;17.00;1.00;;;;;;4937446;29;19923;-91
2022/09/05 05:33:39;;;;;;;;;;;17.50;1.00;;;;;;4959047;29;19922;-93
2022/09/05 05:36:13;;;;;;;;;;;17.90;1.00;;;;;;4973861;29;19914;-92
2022/09/05 05:38:43;;;;;;;;;;;18.20;1.00;;;;;;4971041;29;19906;-93
2022/09/05 05:41:20;;;;;;;;;;;18.50;1.00;;;;;;4959714;29;19907;-89
2022/09/05 05:43:50;;;;;;;;;;;18.70;1.00;;;;;;4959375;29;19923;-94
2022/09/05 05:46:35;;;;;;;14.65;13.18;;;19.10;1.00;;;;;;4959371;29;19950;-91
2022/09/05 05:49:17;;;;;;;;;;;19.50;1.00;;;;;;4959573;29;20216;-92
2022/09/05 05:51:52;;;;;;;;;;;19.70;1.00;;;;;;4959207;29;19929;-92
2022/09/05 05:54:31;;;;;;;18.85;15.48;;;20.00;1.00;;;;;;4958966;29;20415;-92
2022/09/05 05:57:28;;;;;;;;;;;20.30;1.00;;;;;;4951385;29;20204;-90
2022/09/05 06:00:08;;;;;;;;;;;20.50;1.00;;;;;;4958180;29;19907;-91
2022/09/05 06:02:54;;;;;;;;;;;20.80;1.00;;;;;;4958845;29;19923;-92
2022/09/05 06:06:03;;;;;;;16.67;14.65;;;20.90;1.00;;;;;;4971879;29;19929;-89
2022/09/05 06:08:36;;;;;;;;;;;21.10;1.00;;;;;;4917419;29;20192;-92
2022/09/05 06:11:34;;;;;;;29.25;19.27;;;21.40;1.00;;;;;;4957068;29;20430;-93
2022/09/05 06:14:36;;;;;;;19.08;16.27;;;21.80;1.00;;;;;;4958944;29;20279;-91
2022/09/05 06:17:50;;;;;;;23.05;17.45;;;21.90;1.00;;;;;;4955980;29;20225;-91
2022/09/05 06:20:46;;;;;;;26.55;18.65;;;22.30;1.00;;;;;;4939736;29;20192;-93
2022/09/05 06:23:51;;;;;;;28.60;19.15;;;22.70;1.00;;;;;;4946402;29;20217;-91
2022/09/05 06:26:56;;;;;;;30.30;19.77;;;22.90;1.00;;;;;;4900906;29;20210;-93
2022/09/05 06:29:41;;;;;;;30.13;19.65;;;22.90;1.00;;;;;;4860763;29;20216;-91
2022/09/05 06:32:25;;;;;;;27.40;18.85;;;23.00;1.00;;;;;;4894396;29;20194;-92
2022/09/05 06:35:17;;;;;;;27.60;19.10;;;23.30;1.00;;;;;;4900862;29;20202;-91
2022/09/05 06:37:53;;;;;;;27.98;19.17;;;23.40;1.00;;;;;;4900754;29;20217;-93
2022/09/05 06:40:25;;;;;;;28.02;19.30;;;23.60;1.00;;;;;;4901008;29;20216;-93
2022/09/05 06:43:06;;;;;;;27.20;18.95;;;23.50;1.00;;;;;;4915957;29;20193;-90
2022/09/05 06:49:09;;;;;;;;;;;23.90;1.00;;;;;;5240740;23;20234;-92
2022/09/05 06:52:11;;;;;;;52.42;24.98;;;24.30;1.00;;;;;;4941222;29;20480;-91
2022/09/05 06:55:07;;;;;;;28.52;19.55;;;24.40;1.00;;;;;;4958165;29;20228;-91
2022/09/05 06:58:12;;;;;;;25.97;18.70;;;24.80;1.00;;;;;;4958443;29;20200;-89
2022/09/05 07:00:46;;;;;;;25.77;18.67;;;25.40;1.00;;;;;;4949828;29;20065;-95
2022/09/05 07:03:36;;;;;;;25.30;18.42;;;25.60;1.00;;;;;;4939476;29;20205;-92
2022/09/05 07:06:14;;;;;;;25.75;18.73;;;25.80;1.00;;;;;;4939232;29;20213;-92
2022/09/05 07:08:52;;;;;;;26.60;18.90;;;25.80;1.00;;;;;;4954455;29;20185;-87
2022/09/05 07:11:23;;;;;;;26.35;18.85;;;25.70;1.00;;;;;;4939224;29;20219;-87
2022/09/05 07:13:58;;;;;;;25.15;18.60;;;25.70;1.00;;;;;;4938877;29;20562;-87
2022/09/05 07:16:36;;;;;;;20.52;16.90;;;26.00;1.00;;;;;;4938518;29;20659;-86
2022/09/05 07:19:07;;;;;;;;;;;26.20;1.00;;;;;;4939208;29;20213;-86
2022/09/05 07:21:40;;;;;;;;;;;26.50;1.00;;;;;;4939306;29;19923;-87
2022/09/05 07:24:08;;;;;;;;;;;26.80;1.00;;;;;;4935512;29;20651;-88
2022/09/05 07:26:39;;;;;;;33.95;21.25;;;26.90;1.00;;;;;;4918113;29;20516;-88
2022/09/05 07:29:07;;;;;;;18.88;16.00;;;26.90;1.00;;;;;;4932611;29;20189;-87
2022/09/05 07:31:37;;;;;;;22.73;17.63;;;26.90;1.00;;;;;;4919297;29;20652;-87
2022/09/05 07:34:11;;;;;;;23.73;18.02;;;27.10;1.00;;;;;;4919689;29;20205;-87
2022/09/05 07:36:42;;;;;;;;;;;27.40;1.00;;;;;;4928016;29;20202;-86
2022/09/05 07:39:12;;;;;;;;;;;27.70;1.00;;;;;;4923860;29;19930;-87
2022/09/05 07:41:41;;;;;;;;;;;27.90;1.00;;;;;;4919747;29;19923;-86
2022/09/05 07:44:11;;;;;;;;;;;28.30;1.00;;;;;;4919294;29;19923;-86
2022/09/05 07:46:39;;;;;;;;;;;28.70;1.00;;;;;;4919388;29;19927;-87
2022/09/05 07:49:07;;;;;;;;;;;28.90;1.00;;;;;;4919276;29;20274;-87
2022/09/05 07:51:35;;;;;;;;;;;29.00;1.00;;;;;;4919099;29;19923;-87
2022/09/05 07:54:09;;;;;;;;;;;28.80;1.00;;;;;;4938447;29;19922;-92
2022/09/05 07:56:45;;;;;;;;;;;28.30;1.00;;;;;;4962211;29;19930;-93
2022/09/05 07:59:14;;;;;;;;;;;28.20;1.00;;;;;;4961640;29;19922;-90
2022/09/05 08:01:46;;;;;;;;;;;28.30;1.00;;;;;;4962112;29;19929;-92
2022/09/05 08:04:23;;;;;;;;;;;28.40;1.00;;;;;;4961599;29;19937;-93
2022/09/05 08:06:53;;;;;;;;;;;28.50;1.00;;;;;;4961572;29;19954;-92
2022/09/05 08:09:26;;;;;;;;;;;28.70;1.00;;;;;;4961516;29;19906;-92
2022/09/05 08:12:01;;;;;;;;;;;28.90;1.00;;;;;;4961197;29;19923;-92
2022/09/05 08:14:39;;;;;;;;;;;28.60;1.00;;;;;;4954552;29;19979;-92
2022/09/05 08:17:11;;;;;;;;;;;28.30;1.00;;;;;;4956429;29;19926;-93
2022/09/05 08:20:00;;;;;;;;;;;28.20;1.00;;;;;;4961623;29;19913;-90
2022/09/05 08:22:37;;;;;;;;;;;28.20;1.00;;;;;;4960513;29;19907;-90
2022/09/05 08:25:14;;;;;;;;;;;28.20;1.00;;;;;;4950227;29;19923;-93
2022/09/05 08:27:49;;;;;;;;;;;28.20;1.00;;;;;;4950801;29;19914;-92
2022/09/05 08:30:16;;;;;;;;;;;27.90;1.00;;;;;;4961026;29;19954;-91
2022/09/05 08:32:48;;;;;;;;;;;27.90;1.00;;;;;;4959765;29;19946;-92
2022/09/05 08:35:21;;;;;;;;;;;27.70;1.00;;;;;;4941816;29;19954;-92
2022/09/05 08:37:49;;;;;;;;;;;27.50;1.00;;;;;;4942091;29;19938;-93
2022/09/05 08:40:26;;;;;;;;;;;27.60;1.00;;;;;;4942353;29;19927;-91
2022/09/05 08:42:57;;;;;;;;;;;27.90;1.00;;;;;;4937445;29;19907;-92
2022/09/05 08:45:38;;;;;;;;;;;27.80;1.00;;;;;;4942495;29;19907;-93
2022/09/05 08:48:15;;;;;;;;;;;27.60;1.00;;;;;;4949629;29;19950;-91
2022/09/05 08:50:54;;;;;;;;;;;27.60;1.00;;;;;;4960531;29;19923;-93
2022/09/05 08:53:37;;;;;;;;;;;27.70;1.00;;;;;;4960713;29;19923;-92
2022/09/05 08:58:58;;;;;;;;;;;27.60;1.00;;;;;;4958023;29;19929;-93
2022/09/05 09:01:32;;;;;;;;;;;27.70;1.00;;;;;;4922981;29;19907;-92
2022/09/05 09:04:19;;;;;;;;;;;27.80;1.00;;;;;;4928364;29;19922;-94
2022/09/05 09:06:56;;;;;;;;;;;27.70;1.00;;;;;;4957010;29;19927;-89
2022/09/05 09:09:33;;;;;;;;;;;27.70;1.00;;;;;;4955306;29;19929;-89
2022/09/05 09:12:04;;;;;;;;;;;27.50;1.00;;;;;;4959909;29;19929;-90
2022/09/05 09:14:35;;;;;;;;;;;27.20;1.00;;;;;;4948791;29;19911;-94
2022/09/05 09:17:10;;;;;;;;;;;26.70;1.00;;;;;;4928918;29;19946;-94
2022/09/05 09:19:51;;;;;;;;;;;26.50;1.00;;;;;;4960343;29;19923;-93
2022/09/05 09:22:33;;;;;;;;;;;26.50;1.00;;;;;;4959960;29;19994;-92
2022/09/05 09:25:07;;;;;;;;;;;26.60;1.00;;;;;;4960339;29;19906;-89
2022/09/05 09:27:44;;;;;;;;;;;26.50;1.00;;;;;;4959688;29;19950;-93
2022/09/05 09:30:12;;;;;;;;;;;26.50;1.00;;;;;;4959944;29;19922;-91
2022/09/05 09:32:47;;;;;;;;;;;26.80;1.00;;;;;;4959342;29;19923;-91
2022/09/05 09:35:22;;;;;;;;;;;26.90;1.00;;;;;;4959318;29;19929;-93
2022/09/05 09:41:01;;;;;;;;;;;26.90;1.00;;;;;;5362515;23;19913;-91
2022/09/05 09:43:37;;;;;;;;;;;26.90;1.00;;;;;;4888792;28;19924;-88
2022/09/05 09:46:14;;;;;;;;;;;26.70;1.00;;;;;;4961840;29;19923;-87
2022/09/05 09:48:58;;;;;;;;;;;26.50;1.00;;;;;;4955482;29;19929;-86
2022/09/05 09:51:35;;;;;;;;;;;26.30;1.00;;;;;;4955335;29;19961;-87
2022/09/05 10:00:21;;;;;;;;;;;25.40;1.00;;;;;;5036962;23;19907;-92
2022/09/05 10:03:01;;;;;;;;;;;25.40;1.00;;;;;;4902559;29;19927;-91
2022/09/05 10:05:46;;;;;;;;;;;25.50;1.00;;;;;;4902951;29;19934;-92
2022/09/05 10:08:23;;;;;;;;;;;25.60;1.00;;;;;;4890043;29;19924;-91
2022/09/05 10:11:02;;;;;;;;;;;25.60;1.00;;;;;;4901101;29;19923;-91
2022/09/05 10:13:37;;;;;;;;;;;25.60;1.00;;;;;;4902528;29;19930;-93
2022/09/05 10:16:25;;;;;;;;;;;25.40;1.00;;;;;;4903035;29;19907;-93
2022/09/05 10:19:00;;;;;;;;;;;25.20;1.00;;;;;;4871949;29;19919;-91
2022/09/05 10:51:00;;;;;;;;;;;24.20;1.00;;;;;;4828122;29;19920;-92
2022/09/05 10:53:35;;;;;;;;;;;24.10;1.00;;;;;;4828231;29;19955;-91
2022/09/05 10:56:11;;;;;;;;;;;24.00;1.00;;;;;;4892573;29;19907;-93
2022/09/05 10:59:00;;;;;;;;;;;23.90;1.00;;;;;;4906426;29;19913;-91
2022/09/05 11:01:41;;;;;;;;;;;23.80;1.00;;;;;;4920859;29;19959;-93
2022/09/05 11:04:12;;;;;;;;;;;23.70;1.00;;;;;;4921384;29;19914;-93
2022/09/05 11:07:05;;;;;;;;;;;23.60;1.00;;;;;;4920449;29;19921;-91
2022/09/05 11:09:41;;;;;;;;;;;23.60;1.00;;;;;;4921037;29;19930;-92
2022/09/05 11:12:18;;;;;;;;;;;23.80;1.00;;;;;;4919825;29;19907;-92
2022/09/05 11:14:50;;;;;;;;;;;23.90;1.00;;;;;;4909645;29;19914;-92
2022/09/05 11:17:32;;;;;;;;;;;23.90;1.00;;;;;;4921043;29;19923;-91
2022/09/05 11:20:14;;;;;;;;;;;23.90;1.00;;;;;;4912189;29;20259;-91
2022/09/05 11:22:45;;;;;;;;;;;23.90;1.00;;;;;;4916921;29;19914;-92
2022/09/05 11:25:19;;;;;;;;;;;23.80;1.00;;;;;;4921168;29;19923;-92
2022/09/05 11:28:08;;;;;;;;;;;23.80;1.00;;;;;;4920611;29;19923;-92
2022/09/05 11:30:39;;;;;;;;;;;23.80;1.00;;;;;;4920440;29;19934;-91
2022/09/05 11:33:16;;;;;;;;;;;23.80;1.00;;;;;;4920621;29;19988;-91
2022/09/05 11:35:52;;;;;;;;;;;23.70;1.00;;;;;;4919749;29;19924;-90
2022/09/05 11:38:48;;;;;;;;;;;23.80;1.00;;;;;;4920984;29;19923;-92
2022/09/05 11:41:42;;;;;;;;;;;23.80;1.00;;;;;;4920609;29;19908;-88
2022/09/05 11:44:28;;;;;;;;;;;23.70;1.00;;;;;;4920452;29;19924;-88
2022/09/05 11:47:07;;;;;;;;;;;23.70;1.00;;;;;;4912758;29;19923;-92
2022/09/05 11:49:51;;;;;;;;;;;23.80;1.00;;;;;;4920241;29;19923;-92
2022/09/05 11:52:40;;;;;;;;;;;23.90;1.00;;;;;;4918613;29;19927;-90
2022/09/05 11:55:20;;;;;;;;;;;23.80;1.00;;;;;;4896861;29;20382;-91
2022/09/05 11:57:54;;;;;;;;;;;23.70;1.00;;;;;;4904971;29;19930;-93
2022/09/05 12:00:35;;;;;;;;;;;23.90;1.00;;;;;;4922530;29;19979;-91
2022/09/05 12:03:17;;;;;;;;;;;24.10;1.00;;;;;;4923645;29;19932;-90
2022/09/05 12:06:07;;;;;;;;;;;24.10;1.00;;;;;;4923677;29;19924;-92
2022/09/05 12:08:36;;;;;;;;;;;24.10;1.00;;;;;;4936973;29;19950;-94
2022/09/05 12:11:12;;;;;;;;;;;24.20;1.00;;;;;;4933826;29;19930;-91
2022/09/05 12:13:47;;;;;;;;;;;24.30;1.00;;;;;;4943015;29;19907;-90
2022/09/05 12:16:45;;;;;;;;;;;24.40;1.00;;;;;;4942289;29;19907;-93
2022/09/05 12:19:19;;;;;;;;;;;24.60;1.00;;;;;;4942499;29;19923;-95
2022/09/05 12:22:01;;;;;;;;;;;24.70;1.00;;;;;;4941936;29;19947;-91
2022/09/05 12:24:33;;;;;;;;;;;24.80;1.00;;;;;;4932125;29;19923;-94
2022/09/05 12:27:07;;;;;;;;;;;24.80;1.00;;;;;;4929611;29;19927;-92
2022/09/05 12:29:45;;;;;;;;;;;24.90;1.00;;;;;;4922574;29;19987;-91
2022/09/05 12:32:19;;;;;;;;;;;24.90;1.00;;;;;;4922930;29;19924;-95
2022/09/05 12:34:55;;;;;;;;;;;25.00;1.00;;;;;;4911428;29;19923;-93
2022/09/05 12:40:19;;;;;;;;;;;25.00;1.00;;;;;;4922090;29;19926;-91
2022/09/05 12:42:53;;;;;;;;;;;25.00;1.00;;;;;;4922925;29;19923;-91
2022/09/05 12:45:23;;;;;;;;;;;25.00;1.00;;;;;;4937780;29;19946;-91
2022/09/05 12:47:56;;;;;;;;;;;24.80;1.00;;;;;;4941031;29;19919;-90
2022/09/05 12:50:32;;;;;;;;;;;24.70;1.00;;;;;;4925878;29;19924;-92
2022/09/05 12:53:05;;;;;;;;;;;24.40;1.00;;;;;;4921971;29;19924;-92
2022/09/05 12:55:35;;;;;;;;;;;24.40;1.00;;;;;;4922683;29;19924;-95
2022/09/05 12:58:13;;;;;;;;;;;24.30;1.00;;;;;;4930434;29;19931;-91
2022/09/05 13:00:44;;;;;;;;;;;24.20;1.00;;;;;;4925147;29;19923;-90
2022/09/05 13:03:16;;;;;;;;;;;24.20;1.00;;;;;;4922315;29;19957;-93
2022/09/05 13:05:52;;;;;;;;;;;24.30;1.00;;;;;;4921836;29;19908;-90
2022/09/05 13:08:30;;;;;;;;;;;24.30;1.00;;;;;;4921170;29;19923;-92
2022/09/05 13:11:00;;;;;;;;;;;24.30;1.00;;;;;;4922115;29;19968;-91
2022/09/05 13:13:36;;;;;;;;;;;24.10;1.00;;;;;;4919738;29;19948;-92
2022/09/05 13:16:10;;;;;;;;;;;23.90;1.00;;;;;;4920261;29;19907;-90
2022/09/05 13:18:39;;;;;;;;;;;23.90;1.00;;;;;;4921121;29;19929;-93
2022/09/05 13:21:10;;;;;;;;;;;23.80;1.00;;;;;;4920661;29;19930;-91
2022/09/05 13:26:26;;;;;;;;;;;23.80;1.00;;;;;;4916643;29;19962;-91
2022/09/05 13:28:57;;;;;;;;;;;23.80;1.00;;;;;;4919523;29;19923;-90
2022/09/05 13:31:43;;;;;;;;;;;23.80;1.00;;;;;;4917858;29;20464;-89
2022/09/05 13:34:14;;;;;;;;;;;23.80;1.00;;;;;;4919643;29;19927;-90
2022/09/05 13:36:45;;;;;;;;;;;23.70;1.00;;;;;;4915195;29;19921;-90
2022/09/05 13:39:26;;;;;;;;;;;23.80;1.00;;;;;;4920983;29;19923;-89
2022/09/05 13:42:02;;;;;;;;;;;23.70;1.00;;;;;;4921593;29;19908;-93
2022/09/05 13:44:34;;;;;;;;;;;23.70;1.00;;;;;;4919434;29;19948;-87
2022/09/05 13:47:05;;;;;;;;;;;23.60;1.00;;;;;;4898628;29;19924;-88
2022/09/05 13:49:35;;;;;;;;;;;23.50;1.00;;;;;;4896647;29;19935;-87
2022/09/05 13:52:15;;;;;;;;;;;23.50;1.00;;;;;;4896335;29;19927;-89
2022/09/05 13:54:44;;;;;;;;;;;23.50;1.00;;;;;;4908862;29;19978;-87
2022/09/05 13:57:25;;;;;;;;;;;23.40;1.00;;;;;;4906896;29;19927;-88
2022/09/05 14:00:16;;;;;;;;;;;23.40;1.00;;;;;;4897540;29;19934;-90
2022/09/05 14:02:51;;;;;;;;;;;23.40;1.00;;;;;;4883419;29;19924;-88
2022/09/05 14:05:25;;;;;;;;;;;23.30;1.00;;;;;;4896811;29;19927;-87
2022/09/05 14:08:16;;;;;;;;;;;23.30;1.00;;;;;;4906258;29;19930;-89
2022/09/05 14:11:06;;;;;;;;;;;23.20;1.00;;;;;;4903349;29;20393;-87
2022/09/05 14:13:40;;;;;;;;;;;23.30;1.00;;;;;;4898265;29;20025;-88
2022/09/05 14:16:12;;;;;;;;;;;23.40;1.00;;;;;;4903594;29;19934;-92
2022/09/05 14:21:27;;;;;;;;;;;23.40;1.00;;;;;;4916255;29;19924;-90
2022/09/05 14:23:55;;;;;;;;;;;23.40;1.00;;;;;;4910285;29;19931;-87
2022/09/05 14:26:26;;;;;;;;;;;23.40;1.00;;;;;;4897828;29;19927;-88
2022/09/05 14:28:58;;;;;;;;;;;23.30;1.00;;;;;;4896124;29;19936;-89
2022/09/05 14:31:29;;;;;;;;;;;23.10;1.00;;;;;;4896219;29;19924;-90
2022/09/05 14:34:10;;;;;;;;;;;23.00;1.00;;;;;;4886159;29;19980;-85
2022/09/05 14:36:46;;;;;;;;;;;23.00;1.00;;;;;;4895962;29;19923;-86
2022/09/05 14:39:30;;;;;;;;;;;23.00;1.00;;;;;;4894670;29;19927;-85
2022/09/05 14:42:14;;;;;;;;;;;23.00;1.00;;;;;;4895079;29;19978;-89
2022/09/05 14:45:02;;;;;;;;;;;23.10;1.00;;;;;;4895590;29;19930;-85
2022/09/05 14:47:41;;;;;;;;;;;23.20;1.00;;;;;;4892636;29;20010;-87
2022/09/05 14:50:33;;;;;;;;;;;23.20;1.00;;;;;;4897185;29;20373;-86
2022/09/05 14:53:03;;;;;;;;;;;23.20;1.00;;;;;;4883040;29;20377;-87
2022/09/05 14:55:30;;;;;;;;;;;23.10;1.00;;;;;;4896539;29;19988;-86
2022/09/05 14:57:58;;;;;;;;;;;23.00;1.00;;;;;;4896891;29;19923;-86
2022/09/05 15:00:26;;;;;;;;;;;23.00;1.00;;;;;;4896810;29;19928;-86
2022/09/05 15:02:54;;;;;;;;;;;23.00;1.00;;;;;;4896688;29;20018;-86
2022/09/05 15:05:34;;;;;;;;;;;23.10;1.00;;;;;;4897144;29;19923;-89
2022/09/05 15:08:03;;;;;;;;;;;23.10;1.00;;;;;;4894524;29;20373;-87
2022/09/05 15:10:34;;;;;;;;;;;23.10;1.00;;;;;;4896553;29;20297;-86
2022/09/05 15:13:04;;;;;;;;;;;23.00;1.00;;;;;;4891320;29;19958;-86
2022/09/05 15:15:34;;;;;;;;;;;23.00;1.00;;;;;;4896945;29;20021;-89
2022/09/05 15:18:03;;;;;;;;;;;23.00;1.00;;;;;;4894507;29;19931;-87
2022/09/05 15:20:32;;;;;;;;;;;23.00;1.00;;;;;;4897312;29;19959;-89
2022/09/05 15:22:59;;;;;;;;;;;23.00;1.00;;;;;;4894282;29;19997;-85
2022/09/05 15:25:28;;;;;;;;;;;23.00;1.00;;;;;;4908384;29;19914;-90
2022/09/05 15:27:55;;;;;;;;;;;23.00;1.00;;;;;;4897502;29;19971;-88
2022/09/05 15:30:23;;;;;;;;;;;23.10;1.00;;;;;;4898981;29;19927;-87
2022/09/05 15:32:50;;;;;;;;;;;23.10;1.00;;;;;;4899926;29;20265;-87
2022/09/05 15:35:18;;;;;;;;;;;23.10;1.00;;;;;;4901799;29;19927;-88
2022/09/05 15:37:48;;;;;;;;;;;23.10;1.00;;;;;;4899931;29;20027;-88